Acacia Lake, Texas
Current Conditions -  °F | °C
As of 5:53 PM on Saturday 20 Dec 2014 (Local Time) from KBRO Reporting Station
Overcast Overcast  
Wind Chill: 58°   Ceiling: 1100
Heat Index: 58°   Visibility: 10mi
Dew Point: 53°   Wind: 12mph
Humidity: 84%   Direction: 360°N
Pressure: 30.1"   Gusts: NA
Location:  26.0002°N, 97.5729°W
Report Text: KBRO 202353Z 36010KT 10SM OVC011 14/12 A3010 RMK AO2 SLP191 T01440117 10161 20144 56002
Loading
Personal Weather Stations






























Interactive Weather Map New forecast layout! Learn more

10-Day Weather Forecast

Advertisements
Track Severe Weather on mobile